Malaysia Virtual Airlines Airport Information Service

Karachi Airport

ICAO: OPKC Country: Pakistan
Latitude: 24.9065 Longitude: 67.1608
Latest Arrival : MC160 (WMKK-OPKC) Latest Departure : MC160 (OPKC-OMDB)


WX CaptureLIVE
Data provided by noaa.gov | Fetched at 16:28:23

METAR : OPKC 261600Z 23010KT 5000 HZ SCT020 BKN030 29/25 Q0997 TEMPO 25015G25KT

TAF : OPKC 230330Z 2306/2412 24010G20KT 6000 SCT020 BKN030 FM231800 26010KT 4000 DZ SCT020 BKN025 FM240600 24010G20KT 6000 SCT020 BKN030


Runway Data for OPKC
Data provided by openaviationdata.com

Runway ID Mag Var Hdg Length Elevation Surface ILS Freq ILS Id ILS Slope
07L 0 74° 10457 ft 100 ft Concrete -- -- --
07R 0 74° 11159 ft 100 ft Concrete -- -- --
25L 0 254° 11159 ft 100 ft Concrete 109.7 IQA 3
25R 0 254° 10457 ft 100 ft Concrete 110.1 IKC 3

Karachi Airport, Pakistan
Use only for reference purposes



Not for navigational purposes.